Time;durP1;ratioP1;P1;durP2;ratioP2;P2;SDS_P1;SDS_P2;PMS_P1;PMS_P2;Temp;Humidity;BMP_temperature;BMP_pressure;BME280_temperature;BME280_humidity;BME280_pressure;Samples;Min_cycle;Max_cycle;Signal;HPM_P1;HPM_P2
2021/08/02 00:01:19;;;;;;;3.93;1.90;;;14.50;99.90;;;;;;4285917;33;20189;-60
2021/08/02 00:03:51;;;;;;;6.27;2.40;;;14.60;99.90;;;;;;4285346;33;20166;-61
2021/08/02 00:06:22;;;;;;;6.37;2.40;;;14.60;99.90;;;;;;4285060;33;20192;-62
2021/08/02 00:08:59;;;;;;;5.87;2.63;;;14.60;99.90;;;;;;4285769;33;20187;-62
2021/08/02 00:11:36;;;;;;;6.17;2.40;;;14.60;99.90;;;;;;4288410;33;20197;-61
2021/08/02 00:14:07;;;;;;;7.43;2.30;;;14.60;99.90;;;;;;4288034;33;20541;-63
2021/08/02 00:16:37;;;;;;;6.63;2.20;;;14.60;99.90;;;;;;4288206;33;20173;-62
2021/08/02 00:19:04;;;;;;;7.47;2.00;;;14.70;99.90;;;;;;4288118;33;20181;-62
2021/08/02 00:21:31;;;;;;;7.50;2.90;;;14.60;99.90;;;;;;4287893;33;20210;-62
2021/08/02 00:23:58;;;;;;;6.83;2.30;;;14.60;99.90;;;;;;4289570;33;20223;-63
2021/08/02 00:26:25;;;;;;;6.87;2.73;;;14.60;99.90;;;;;;4289623;33;20666;-62
2021/08/02 00:28:52;;;;;;;5.13;2.07;;;14.50;99.90;;;;;;4288849;33;20170;-63
2021/08/02 00:31:20;;;;;;;5.40;2.17;;;14.50;99.90;;;;;;4314744;33;20179;-62
2021/08/02 00:33:48;;;;;;;6.07;2.20;;;14.50;99.90;;;;;;4346121;33;20184;-62
2021/08/02 00:36:22;;;;;;;3.50;2.13;;;14.40;99.90;;;;;;4347367;33;20248;-62
2021/08/02 00:38:55;;;;;;;4.13;2.00;;;14.30;99.90;;;;;;4389926;32;20174;-62
2021/08/02 00:41:57;;;;;;;7.30;2.00;;;14.40;99.90;;;;;;4408191;32;20591;-62
2021/08/02 00:45:02;;;;;;;6.20;2.10;;;14.50;99.90;;;;;;4345900;33;20207;-63
2021/08/02 00:47:33;;;;;;;5.03;2.00;;;14.50;99.90;;;;;;4346137;33;20165;-61
2021/08/02 00:50:07;;;;;;;5.07;2.00;;;14.50;99.90;;;;;;4346452;33;20196;-63
2021/08/02 00:52:35;;;;;;;9.93;2.23;;;14.60;99.90;;;;;;4346811;33;20191;-61
2021/08/02 00:55:04;;;;;;;3.77;2.20;;;14.60;99.90;;;;;;4351930;33;20221;-62
2021/08/02 00:57:36;;;;;;;3.00;1.77;;;14.70;99.90;;;;;;4360604;33;20223;-63
2021/08/02 01:00:07;;;;;;;3.97;2.00;;;14.70;99.90;;;;;;4360994;32;20192;-63
2021/08/02 01:02:38;;;;;;;4.83;2.03;;;14.60;99.90;;;;;;4361610;32;20172;-61
2021/08/02 01:05:10;;;;;;;4.37;2.13;;;14.60;99.90;;;;;;4362118;32;20168;-62
2021/08/02 01:07:42;;;;;;;3.17;1.53;;;14.60;99.90;;;;;;4360500;32;20216;-63
2021/08/02 01:10:11;;;;;;;6.20;2.17;;;14.70;99.90;;;;;;4361760;32;20153;-63
2021/08/02 01:12:42;;;;;;;4.97;2.03;;;14.70;99.90;;;;;;4360995;32;20581;-63
2021/08/02 01:15:10;;;;;;;2.90;2.23;;;14.70;99.90;;;;;;4360574;32;20623;-62
2021/08/02 01:17:38;;;;;;;4.50;2.30;;;14.60;99.90;;;;;;4360325;32;20322;-63
2021/08/02 01:20:06;;;;;;;6.67;2.20;;;14.60;99.90;;;;;;4360840;32;20173;-62
2021/08/02 01:22:38;;;;;;;7.37;2.60;;;14.50;99.90;;;;;;4424485;32;20182;-63
2021/08/02 01:25:55;;;;;;;2.60;1.60;;;14.50;99.90;;;;;;4423312;32;20151;-62
2021/08/02 01:28:59;;;;;;;2.43;2.00;;;14.50;99.90;;;;;;4423164;32;20220;-60
2021/08/02 01:31:28;;;;;;;9.00;2.60;;;14.50;99.90;;;;;;4422432;32;20167;-62
2021/08/02 01:33:56;;;;;;;5.10;2.10;;;14.50;99.90;;;;;;4422559;32;20173;-62
2021/08/02 01:36:23;;;;;;;7.53;2.43;;;14.60;99.90;;;;;;4422563;32;20155;-61
2021/08/02 01:38:52;;;;;;;5.20;2.23;;;14.50;99.90;;;;;;4422410;32;20183;-61
2021/08/02 01:41:19;;;;;;;5.47;2.43;;;14.50;99.90;;;;;;4424151;32;20595;-62
2021/08/02 01:43:46;;;;;;;4.30;1.73;;;14.50;99.90;;;;;;4423913;32;20482;-62
2021/08/02 01:46:27;;;;;;;5.90;2.60;;;14.60;99.90;;;;;;4422345;32;20167;-62
2021/08/02 01:49:01;;;;;;;4.73;1.50;;;14.60;99.90;;;;;;4422246;32;20176;-62
2021/08/02 01:51:36;;;;;;;8.07;2.53;;;14.60;99.90;;;;;;4422619;32;20147;-61
2021/08/02 01:54:15;;;;;;;5.27;2.23;;;14.60;99.90;;;;;;4422247;32;20142;-61
2021/08/02 01:56:51;;;;;;;2.87;1.63;;;14.60;99.90;;;;;;4423937;32;20198;-62
2021/08/02 01:59:20;;;;;;;5.60;1.70;;;14.60;99.90;;;;;;4423092;32;20151;-62
2021/08/02 02:01:53;;;;;;;4.20;2.03;;;14.60;99.90;;;;;;4421860;32;20182;-62
2021/08/02 02:04:24;;;;;;;5.47;2.13;;;14.70;99.90;;;;;;4422673;32;20532;-62
2021/08/02 02:06:53;;;;;;;5.80;1.93;;;14.70;99.90;;;;;;4423575;32;20535;-62
2021/08/02 02:09:22;;;;;;;8.53;2.13;;;14.60;99.90;;;;;;4423163;32;20572;-62
2021/08/02 02:11:51;;;;;;;4.80;1.67;;;14.70;99.90;;;;;;4409815;32;20167;-62
2021/08/02 02:14:19;;;;;;;5.30;2.53;;;14.60;99.90;;;;;;4406784;32;20183;-62
2021/08/02 02:16:48;;;;;;;5.77;1.70;;;14.60;99.90;;;;;;4406297;32;20176;-62
2021/08/02 02:19:19;;;;;;;7.40;2.40;;;14.60;99.90;;;;;;4406664;32;20519;-63
2021/08/02 02:21:47;;;;;;;3.83;1.50;;;14.60;99.90;;;;;;4406680;32;20164;-62
2021/08/02 02:24:16;;;;;;;6.93;2.43;;;14.70;99.90;;;;;;4406551;32;20163;-63
2021/08/02 02:26:45;;;;;;;7.07;2.27;;;14.60;99.90;;;;;;4407126;32;20568;-62
2021/08/02 02:29:15;;;;;;;2.80;1.63;;;14.60;99.90;;;;;;4406773;32;20253;-62
2021/08/02 02:31:46;;;;;;;3.67;1.97;;;14.60;99.90;;;;;;4406551;32;20232;-62
2021/08/02 02:34:14;;;;;;;2.83;1.97;;;14.60;99.90;;;;;;4406225;32;20151;-62
2021/08/02 02:36:43;;;;;;;3.50;1.87;;;14.60;99.90;;;;;;4407041;32;20169;-62
2021/08/02 02:39:11;;;;;;;5.00;2.53;;;14.60;99.90;;;;;;4406470;32;20174;-62
2021/08/02 02:41:41;;;;;;;10.83;3.03;;;14.60;99.90;;;;;;4407974;32;20609;-62
2021/08/02 02:44:09;;;;;;;6.27;2.07;;;14.60;99.90;;;;;;4407165;32;20147;-61
2021/08/02 02:46:36;;;;;;;3.73;1.97;;;14.60;99.90;;;;;;4405015;32;20211;-62
2021/08/02 02:49:03;;;;;;;6.23;1.60;;;14.50;99.90;;;;;;4407051;32;20186;-63
2021/08/02 02:51:31;;;;;;;2.67;1.77;;;14.50;99.90;;;;;;4406520;32;20588;-62
2021/08/02 02:54:01;;;;;;;3.83;1.90;;;14.50;99.90;;;;;;4406661;32;20530;-62
2021/08/02 02:56:31;;;;;;;5.13;1.67;;;14.50;99.90;;;;;;4407143;32;20564;-61
2021/08/02 02:58:58;;;;;;;7.53;1.97;;;14.50;99.90;;;;;;4407753;32;20601;-61
2021/08/02 03:01:35;;;;;;;8.43;2.53;;;14.50;99.90;;;;;;4406881;32;20606;-61
2021/08/02 03:04:03;;;;;;;6.97;2.07;;;14.50;99.90;;;;;;4406051;32;20190;-62
2021/08/02 03:06:30;;;;;;;6.77;2.20;;;14.50;99.90;;;;;;4407528;32;20168;-63
2021/08/02 03:08:58;;;;;;;3.83;2.03;;;14.40;99.90;;;;;;4406398;32;20148;-62
2021/08/02 03:11:26;;;;;;;4.17;2.10;;;14.30;99.90;;;;;;4407728;32;20536;-62
2021/08/02 03:13:53;;;;;;;6.23;2.17;;;14.20;99.90;;;;;;4405354;32;20605;-62
2021/08/02 03:16:21;;;;;;;3.83;1.70;;;14.20;99.90;;;;;;4406015;32;20163;-62
2021/08/02 03:18:49;;;;;;;3.77;1.80;;;14.10;99.90;;;;;;4405760;32;20191;-62
2021/08/02 03:21:17;;;;;;;2.03;1.50;;;14.10;99.90;;;;;;4405863;32;20622;-62
2021/08/02 03:23:50;;;;;;;4.47;1.87;;;14.10;99.90;;;;;;4405843;32;20575;-61
2021/08/02 03:26:21;;;;;;;3.33;2.03;;;14.00;99.90;;;;;;4406381;32;20168;-62
2021/08/02 03:28:59;;;;;;;6.80;2.57;;;14.00;99.90;;;;;;4405465;32;20198;-62
2021/08/02 03:31:31;;;;;;;2.87;1.90;;;13.90;99.90;;;;;;4405704;32;20211;-62
2021/08/02 03:34:01;;;;;;;3.97;2.30;;;13.80;99.90;;;;;;4405681;32;20217;-62
2021/08/02 03:36:30;;;;;;;3.07;1.80;;;13.80;99.90;;;;;;4405764;32;20197;-63
2021/08/02 03:38:59;;;;;;;3.00;1.90;;;13.70;99.90;;;;;;4404769;32;20227;-62
2021/08/02 03:41:27;;;;;;;6.23;2.33;;;13.70;99.90;;;;;;4405521;32;20205;-64
2021/08/02 03:43:55;;;;;;;7.50;2.00;;;13.60;99.90;;;;;;4406646;32;20170;-64
2021/08/02 03:46:26;;;;;;;5.13;2.30;;;13.50;99.90;;;;;;4396368;32;20229;-62
2021/08/02 03:48:57;;;;;;;4.33;2.13;;;13.50;99.90;;;;;;4398950;32;20890;-62
2021/08/02 03:51:41;;;;;;;6.30;2.10;;;13.40;99.90;;;;;;4395265;32;20295;-61
2021/08/02 03:54:14;;;;;;;5.10;2.03;;;13.30;99.90;;;;;;4394852;32;20229;-62
2021/08/02 03:56:42;;;;;;;6.93;2.67;;;13.30;99.90;;;;;;4399741;32;20156;-61
2021/08/02 03:59:24;;;;;;;6.13;2.60;;;13.30;99.90;;;;;;4396219;32;20151;-63
2021/08/02 04:01:53;;;;;;;2.73;2.17;;;13.30;99.90;;;;;;4401325;32;20232;-62
2021/08/02 04:04:20;;;;;;;6.37;2.30;;;13.20;99.90;;;;;;4408521;32;20592;-62
2021/08/02 04:06:48;;;;;;;4.90;3.03;;;13.20;99.90;;;;;;4405075;32;20168;-62
2021/08/02 04:09:15;;;;;;;8.37;2.40;;;13.20;99.90;;;;;;4405163;32;20151;-62
2021/08/02 04:11:45;;;;;;;7.03;2.53;;;13.20;99.90;;;;;;4405078;32;20156;-62
2021/08/02 04:14:12;;;;;;;6.80;2.53;;;13.20;99.90;;;;;;4405197;32;20191;-62
2021/08/02 04:16:39;;;;;;;5.93;2.47;;;13.20;99.90;;;;;;4405365;32;20171;-63
2021/08/02 04:19:07;;;;;;;5.83;2.27;;;13.20;99.90;;;;;;4411026;32;20177;-62
2021/08/02 04:21:34;;;;;;;4.33;2.03;;;13.10;99.90;;;;;;4420373;32;20235;-63
2021/08/02 04:24:02;;;;;;;7.13;2.37;;;13.10;99.90;;;;;;4407979;32;20152;-62
2021/08/02 04:26:29;;;;;;;5.13;2.13;;;13.10;99.90;;;;;;4405300;32;20173;-63
2021/08/02 04:28:56;;;;;;;6.47;2.43;;;13.10;99.90;;;;;;4406103;32;20203;-62
2021/08/02 04:31:25;;;;;;;3.23;2.20;;;13.10;99.90;;;;;;4406265;32;20195;-63
2021/08/02 04:33:52;;;;;;;3.80;2.27;;;13.10;99.90;;;;;;4406315;32;20575;-63
2021/08/02 04:36:19;;;;;;;6.83;2.03;;;13.10;99.90;;;;;;4405253;32;20184;-62
2021/08/02 04:38:46;;;;;;;6.20;2.17;;;13.10;99.90;;;;;;4404909;32;20172;-62
2021/08/02 04:41:14;;;;;;;6.20;2.23;;;13.10;99.90;;;;;;4406342;32;20171;-63
2021/08/02 04:43:41;;;;;;;4.13;2.03;;;13.20;99.90;;;;;;4405562;32;20152;-63
2021/08/02 04:46:08;;;;;;;7.17;2.20;;;13.20;99.90;;;;;;4405147;32;20154;-62
2021/08/02 04:48:35;;;;;;;5.00;2.67;;;13.20;99.90;;;;;;4405242;32;20177;-63
2021/08/02 04:51:02;;;;;;;4.70;2.70;;;13.30;99.90;;;;;;4405035;32;20147;-63
2021/08/02 04:53:29;;;;;;;4.27;2.77;;;13.30;99.90;;;;;;4405747;32;20558;-63
2021/08/02 04:55:56;;;;;;;4.27;2.10;;;13.40;99.90;;;;;;4406082;32;20171;-63
2021/08/02 04:58:24;;;;;;;4.77;2.40;;;13.40;99.90;;;;;;4408150;32;20152;-62
2021/08/02 05:00:51;;;;;;;5.33;2.70;;;13.50;99.90;;;;;;4407949;32;20143;-62
2021/08/02 05:03:18;;;;;;;7.00;2.77;;;13.60;99.90;;;;;;4407857;32;20147;-63
2021/08/02 05:05:45;;;;;;;6.63;2.60;;;13.90;99.90;;;;;;4407624;32;20203;-62
2021/08/02 05:08:11;;;;;;;4.67;2.80;;;14.10;99.90;;;;;;4409049;32;20582;-63
2021/08/02 05:10:38;;;;;;;7.67;2.83;;;14.40;99.90;;;;;;4408834;32;20184;-63
2021/08/02 05:13:05;;;;;;;4.60;2.33;;;14.80;99.90;;;;;;4407654;32;20155;-62
2021/08/02 05:15:34;;;;;;;6.20;2.40;;;14.90;99.90;;;;;;4407369;32;20174;-63
2021/08/02 05:18:00;;;;;;;3.47;2.00;;;15.00;99.90;;;;;;4409312;32;20186;-63
2021/08/02 05:20:31;;;;;;;2.20;2.00;;;15.10;99.90;;;;;;4407461;32;20246;-62
2021/08/02 05:22:57;;;;;;;8.77;2.27;;;15.20;99.90;;;;;;4409038;32;20219;-62
2021/08/02 05:25:24;;;;;;;2.53;1.97;;;15.50;99.90;;;;;;4408443;32;20337;-61
2021/08/02 05:27:53;;;;;;;6.97;2.27;;;17.90;99.90;;;;;;4407345;32;20170;-62
2021/08/02 05:30:20;;;;;;;6.87;2.07;;;20.90;99.90;;;;;;4407559;32;20168;-62
2021/08/02 05:32:48;;;;;;;6.43;1.97;;;24.80;99.90;;;;;;4407599;32;20152;-62
2021/08/02 05:35:15;;;;;;;6.83;2.03;;;28.00;97.50;;;;;;4407170;32;20207;-62
2021/08/02 05:37:42;;;;;;;2.60;1.77;;;30.10;92.80;;;;;;4407425;32;20152;-62
2021/08/02 05:40:10;;;;;;;2.97;1.40;;;31.50;87.50;;;;;;4408593;32;20572;-63
2021/08/02 05:42:37;;;;;;;4.35;1.40;;;32.20;82.30;;;;;;4407868;32;20159;-63
2021/08/02 05:45:05;;;;;;;4.68;1.33;;;33.40;75.20;;;;;;4407204;32;20201;-62
2021/08/02 05:47:32;;;;;;;2.08;1.30;;;33.40;70.20;;;;;;4407160;32;20479;-62
2021/08/02 05:50:00;;;;;;;2.12;1.33;;;31.50;74.50;;;;;;4407260;32;20171;-63
2021/08/02 05:52:27;;;;;;;4.43;1.50;;;29.20;80.30;;;;;;4408162;32;20203;-62
2021/08/02 05:54:53;;;;;;;3.58;1.65;;;26.50;86.40;;;;;;4407241;32;20163;-63
2021/08/02 05:57:21;;;;;;;6.87;2.17;;;24.40;91.10;;;;;;4406963;32;20152;-63
2021/08/02 05:59:48;;;;;;;6.53;2.10;;;23.20;93.20;;;;;;4406972;32;20561;-62
2021/08/02 06:02:15;;;;;;;4.47;1.73;;;22.00;95.20;;;;;;4406736;32;20190;-62
2021/08/02 06:04:42;;;;;;;3.27;1.37;;;21.00;98.20;;;;;;4407723;32;20163;-62
2021/08/02 06:07:10;;;;;;;6.27;1.93;;;20.20;99.90;;;;;;4406493;32;20516;-62
2021/08/02 06:09:37;;;;;;;4.90;1.50;;;19.50;99.90;;;;;;4406837;32;20183;-60
2021/08/02 06:12:04;;;;;;;2.10;1.33;;;19.00;99.90;;;;;;4408253;32;20522;-60
2021/08/02 06:14:31;;;;;;;4.13;1.70;;;18.70;99.90;;;;;;4408602;32;20219;-60
2021/08/02 06:16:58;;;;;;;2.97;1.47;;;18.50;99.90;;;;;;4421560;32;20175;-60
2021/08/02 06:19:25;;;;;;;4.37;1.20;;;18.30;99.90;;;;;;4421552;32;20213;-60
2021/08/02 06:21:51;;;;;;;5.30;1.40;;;18.30;99.90;;;;;;4421727;32;20194;-60
2021/08/02 06:24:20;;;;;;;1.77;1.20;;;18.40;99.90;;;;;;4407517;32;20241;-60
2021/08/02 06:26:46;;;;;;;3.47;1.20;;;18.50;99.90;;;;;;4408097;32;20523;-60
2021/08/02 06:29:14;;;;;;;4.40;1.53;;;18.30;99.90;;;;;;4406386;32;20171;-60
2021/08/02 06:31:41;;;;;;;4.03;1.30;;;18.00;99.90;;;;;;4406726;32;20179;-60
2021/08/02 06:34:08;;;;;;;5.37;1.40;;;17.80;99.90;;;;;;4406116;32;20472;-60
2021/08/02 06:36:34;;;;;;;5.50;1.63;;;17.70;99.90;;;;;;4406478;32;20176;-60
2021/08/02 06:39:01;;;;;;;6.30;1.50;;;17.60;99.90;;;;;;4407082;32;20552;-60
2021/08/02 06:41:29;;;;;;;3.47;1.30;;;17.50;99.90;;;;;;4406456;32;20215;-60
2021/08/02 06:43:56;;;;;;;7.13;1.40;;;17.40;99.90;;;;;;4406603;32;20152;-60
2021/08/02 06:46:23;;;;;;;2.87;1.27;;;17.40;99.90;;;;;;4406375;32;20201;-60
2021/08/02 06:48:50;;;;;;;6.50;2.33;;;17.30;99.90;;;;;;4407316;32;20167;-60
2021/08/02 06:51:19;;;;;;;4.80;1.53;;;17.30;99.90;;;;;;4406322;32;20166;-60
2021/08/02 06:53:46;;;;;;;5.87;1.83;;;17.20;99.90;;;;;;4406724;32;20144;-60
2021/08/02 06:56:14;;;;;;;4.87;1.60;;;17.20;99.90;;;;;;4405886;32;20166;-60
2021/08/02 06:58:44;;;;;;;5.53;1.13;;;17.20;99.90;;;;;;4406230;32;20212;-61
2021/08/02 07:01:11;;;;;;;5.17;1.30;;;17.40;99.90;;;;;;4406043;32;20563;-60
2021/08/02 07:03:38;;;;;;;6.13;1.30;;;17.60;99.90;;;;;;4406130;32;20160;-61
2021/08/02 07:06:05;;;;;;;6.40;1.40;;;18.00;99.90;;;;;;4406145;32;20183;-61
2021/08/02 07:08:31;;;;;;;4.97;1.27;;;18.50;99.90;;;;;;4405967;32;20148;-61
2021/08/02 07:10:58;;;;;;;8.00;1.80;;;18.60;99.90;;;;;;4405774;32;20163;-61
2021/08/02 07:13:25;;;;;;;4.63;1.43;;;18.40;99.90;;;;;;4407237;32;20470;-61
2021/08/02 07:15:53;;;;;;;3.67;1.30;;;18.20;99.90;;;;;;4406118;32;20140;-61
2021/08/02 07:18:21;;;;;;;4.13;1.10;;;18.30;99.90;;;;;;4405118;32;20148;-61
2021/08/02 07:20:49;;;;;;;5.10;1.50;;;18.10;99.90;;;;;;4405635;32;20509;-61
2021/08/02 07:23:16;;;;;;;3.80;1.10;;;17.90;99.90;;;;;;4405723;32;20254;-61
2021/08/02 07:25:43;;;;;;;6.23;1.80;;;18.00;99.90;;;;;;4405520;32;20175;-61
2021/08/02 07:28:13;;;;;;;5.57;1.50;;;17.90;99.90;;;;;;4405939;32;20166;-61
2021/08/02 07:30:39;;;;;;;6.57;1.23;;;17.70;99.90;;;;;;4405694;32;20480;-61
2021/08/02 07:33:08;;;;;;;6.67;1.57;;;17.70;99.90;;;;;;4406403;32;20189;-61
2021/08/02 07:35:35;;;;;;;4.67;1.43;;;17.70;99.90;;;;;;4405628;32;20154;-61
2021/08/02 07:38:02;;;;;;;5.93;1.40;;;18.20;99.90;;;;;;4405407;32;20183;-60
2021/08/02 07:40:29;;;;;;;3.60;1.20;;;19.10;99.90;;;;;;4405527;32;20144;-61
2021/08/02 07:42:56;;;;;;;6.63;1.40;;;20.10;99.90;;;;;;4405260;32;20151;-60
2021/08/02 07:45:23;;;;;;;5.37;1.37;;;20.40;99.90;;;;;;4405573;32;20598;-60
2021/08/02 07:47:51;;;;;;;7.23;1.90;;;20.40;99.90;;;;;;4417542;32;20151;-60
2021/08/02 07:50:19;;;;;;;3.80;1.40;;;20.00;99.90;;;;;;4420638;32;20151;-60
2021/08/02 07:52:46;;;;;;;4.40;1.17;;;19.50;99.90;;;;;;4421825;32;20174;-60
2021/08/02 07:55:14;;;;;;;2.37;1.30;;;19.10;99.90;;;;;;4420475;32;20175;-60
2021/08/02 07:57:41;;;;;;;4.47;1.40;;;18.50;99.90;;;;;;4421777;32;20453;-60
2021/08/02 08:00:11;;;;;;;2.30;1.10;;;18.20;99.90;;;;;;4420620;32;20165;-62
2021/08/02 08:02:38;;;;;;;3.63;1.40;;;18.40;99.90;;;;;;4421861;32;20155;-61
2021/08/02 08:05:05;;;;;;;3.20;1.17;;;22.70;99.90;;;;;;4420570;32;20156;-63
2021/08/02 08:07:43;;;;;;;2.97;1.20;;;25.70;94.00;;;;;;4420354;32;20190;-63
2021/08/02 08:10:12;;;;;;;3.17;0.82;;;28.50;91.10;;;;;;4420604;32;20165;-61
2021/08/02 08:12:39;;;;;;;3.12;1.05;;;34.50;69.90;;;;;;4420245;32;20523;-60
2021/08/02 08:15:07;;;;;;;5.60;1.00;;;38.10;53.10;;;;;;4420473;32;20217;-61
2021/08/02 08:17:34;;;;;;;5.57;1.17;;;37.80;48.40;;;;;;4420527;32;20156;-61
2021/08/02 08:20:01;;;;;;;4.62;1.05;;;36.50;46.90;;;;;;4406934;32;20468;-61
2021/08/02 08:22:28;;;;;;;3.45;1.02;;;34.70;48.40;;;;;;4406841;32;20179;-61
2021/08/02 08:24:58;;;;;;;4.87;1.40;;;32.10;51.40;;;;;;4405965;32;20499;-61
2021/08/02 08:27:25;;;;;;;6.60;1.50;;;29.20;56.30;;;;;;4405405;32;20152;-61
2021/08/02 08:29:52;;;;;;;3.62;1.02;;;26.00;62.90;;;;;;4405566;32;20472;-61
2021/08/02 08:32:19;;;;;;;4.75;1.70;;;23.30;76.60;;;;;;4407778;32;20168;-61
2021/08/02 08:34:46;;;;;;;3.97;1.60;;;20.70;93.00;;;;;;4408045;32;20187;-61
2021/08/02 08:37:12;;;;;;;3.50;1.17;;;19.10;99.90;;;;;;4407841;32;20458;-61
2021/08/02 08:39:39;;;;;;;6.20;1.77;;;18.10;99.90;;;;;;4409162;32;20148;-61
2021/08/02 08:42:08;;;;;;;4.57;1.83;;;17.70;99.90;;;;;;4408127;32;20255;-61
2021/08/02 08:44:35;;;;;;;5.23;1.23;;;17.20;99.90;;;;;;4408121;32;20140;-61
2021/08/02 08:47:02;;;;;;;5.63;1.80;;;17.10;99.90;;;;;;4408809;32;20470;-61
2021/08/02 08:49:29;;;;;;;3.10;1.30;;;17.00;99.90;;;;;;4407946;32;20147;-61
2021/08/02 08:51:57;;;;;;;4.87;2.00;;;17.00;99.90;;;;;;4408036;32;20148;-61
2021/08/02 08:54:24;;;;;;;2.57;1.17;;;17.00;99.90;;;;;;4407670;32;20494;-62
2021/08/02 08:56:52;;;;;;;5.40;1.20;;;17.00;99.90;;;;;;4407889;32;20212;-61
2021/08/02 08:59:20;;;;;;;5.27;1.60;;;17.10;99.90;;;;;;4408007;32;20152;-61
2021/08/02 09:01:47;;;;;;;5.33;1.90;;;17.00;99.90;;;;;;4408400;32;20171;-61
2021/08/02 09:04:14;;;;;;;5.43;1.60;;;17.10;99.90;;;;;;4407670;32;20168;-61
2021/08/02 09:06:48;;;;;;;2.97;1.40;;;17.20;99.90;;;;;;4408397;32;20167;-60
2021/08/02 09:09:26;;;;;;;7.73;1.90;;;17.40;99.90;;;;;;4408005;32;20523;-61
2021/08/02 09:12:04;;;;;;;3.30;1.50;;;17.70;99.90;;;;;;4409342;32;20472;-60
2021/08/02 09:14:33;;;;;;;3.37;1.67;;;17.90;99.90;;;;;;4407372;32;20441;-60
2021/08/02 09:17:00;;;;;;;8.87;1.93;;;18.20;99.90;;;;;;4408029;32;20148;-61
2021/08/02 09:19:39;;;;;;;3.83;1.40;;;18.60;99.90;;;;;;4407404;32;20193;-60
2021/08/02 09:22:06;;;;;;;5.37;1.40;;;19.10;99.90;;;;;;4407583;32;20160;-60
2021/08/02 09:24:34;;;;;;;3.10;1.50;;;19.60;99.90;;;;;;4408710;32;20186;-63
2021/08/02 09:27:01;;;;;;;5.13;1.50;;;20.40;99.90;;;;;;4407371;32;20160;-63
2021/08/02 09:29:28;;;;;;;3.63;1.27;;;21.20;99.90;;;;;;4408119;32;20160;-60
2021/08/02 09:31:57;;;;;;;8.17;1.93;;;22.10;99.30;;;;;;4408380;32;20488;-63
2021/08/02 09:34:24;;;;;;;5.73;1.37;;;22.30;98.10;;;;;;4407245;32;20203;-61
2021/08/02 09:36:56;;;;;;;2.50;1.10;;;22.30;96.80;;;;;;4407331;32;20183;-63
2021/08/02 09:39:28;;;;;;;4.83;1.20;;;22.60;97.20;;;;;;4407128;32;20174;-61
2021/08/02 09:42:02;;;;;;;5.33;1.50;;;22.90;96.80;;;;;;4407051;32;20178;-61
2021/08/02 09:44:29;;;;;;;3.73;1.10;;;23.00;95.70;;;;;;4408672;32;20166;-62
2021/08/02 09:46:59;;;;;;;4.30;1.40;;;23.50;95.70;;;;;;4408948;32;20175;-62
2021/08/02 09:49:27;;;;;;;4.90;1.10;;;23.80;94.10;;;;;;4407126;32;20516;-62
2021/08/02 09:51:56;;;;;;;4.90;1.20;;;24.30;94.00;;;;;;4407509;32;20159;-62
2021/08/02 09:54:26;;;;;;;3.83;1.60;;;24.50;93.50;;;;;;4406927;32;20148;-62
2021/08/02 09:56:54;;;;;;;3.73;1.27;;;24.60;93.30;;;;;;4407581;32;20596;-62
2021/08/02 09:59:22;;;;;;;4.97;1.70;;;24.80;92.80;;;;;;4407029;32;20152;-62
2021/08/02 10:01:50;;;;;;;3.13;1.30;;;24.90;91.20;;;;;;4407082;32;20177;-62
2021/08/02 10:04:19;;;;;;;1.67;1.03;;;25.20;91.70;;;;;;4406984;32;20220;-62
2021/08/02 10:06:45;;;;;;;2.00;1.10;;;25.80;90.70;;;;;;4407015;32;20148;-62
2021/08/02 10:09:13;;;;;;;3.87;1.08;;;26.30;89.10;;;;;;4414715;32;20665;-62
2021/08/02 10:11:40;;;;;;;2.80;1.10;;;25.70;78.10;;;;;;4406968;32;20144;-62
2021/08/02 10:14:09;;;;;;;3.87;1.00;;;25.40;82.40;;;;;;4403036;32;20270;-62
2021/08/02 10:16:38;;;;;;;2.40;1.05;;;24.60;81.30;;;;;;4406954;32;20593;-62
2021/08/02 10:19:09;;;;;;;2.50;1.65;;;23.60;84.10;;;;;;4403262;32;20212;-62
2021/08/02 10:21:43;;;;;;;2.73;1.20;;;23.10;90.20;;;;;;4408078;32;20481;-62
2021/08/02 10:24:13;;;;;;;5.63;1.20;;;22.80;90.10;;;;;;4405515;32;20170;-63
2021/08/02 10:26:41;;;;;;;6.07;1.10;;;22.60;90.80;;;;;;4406881;32;20186;-62
2021/08/02 10:29:09;;;;;;;3.23;1.57;;;22.60;90.30;;;;;;4410243;32;20215;-61
2021/08/02 10:31:44;;;;;;;3.93;1.47;;;22.60;90.80;;;;;;4415034;32;20186;-62
2021/08/02 10:34:16;;;;;;;4.20;2.33;;;22.70;89.70;;;;;;4405923;32;20191;-61
2021/08/02 10:36:44;;;;;;;1.80;1.10;;;22.50;88.40;;;;;;4412633;32;20180;-61
2021/08/02 10:39:22;;;;;;;7.73;1.30;;;22.60;90.20;;;;;;4406471;32;20143;-61
2021/08/02 10:41:49;;;;;;;4.40;1.60;;;22.70;89.60;;;;;;4406346;32;20212;-62
2021/08/02 10:44:19;;;;;;;3.67;1.07;;;22.80;90.10;;;;;;4407428;32;20140;-61
2021/08/02 10:46:46;;;;;;;5.43;1.17;;;23.20;89.60;;;;;;4406351;32;20216;-62
2021/08/02 10:49:14;;;;;;;2.20;1.10;;;23.60;90.00;;;;;;4406283;32;20148;-62
2021/08/02 10:51:49;;;;;;;2.30;1.13;;;23.90;88.30;;;;;;4407963;32;20215;-61
2021/08/02 10:54:17;;;;;;;2.53;0.90;;;24.30;85.30;;;;;;4406075;32;20213;-62
2021/08/02 10:56:48;;;;;;;3.43;2.20;;;24.50;83.70;;;;;;4406416;32;20560;-62
2021/08/02 10:59:16;;;;;;;5.27;1.53;;;25.00;84.10;;;;;;4406161;32;20219;-62
2021/08/02 11:01:47;;;;;;;4.90;1.50;;;25.20;86.30;;;;;;4407031;32;20152;-62
2021/08/02 11:04:17;;;;;;;3.30;1.30;;;25.30;83.60;;;;;;4406164;32;20156;-62
2021/08/02 11:06:45;;;;;;;5.63;1.13;;;24.90;83.50;;;;;;4406162;32;20144;-61
2021/08/02 11:09:14;;;;;;;2.83;1.00;;;25.00;85.60;;;;;;4406152;32;20593;-62
2021/08/02 11:11:41;;;;;;;3.77;1.00;;;24.80;79.80;;;;;;4407605;32;20195;-62
2021/08/02 11:14:09;;;;;;;2.10;1.10;;;24.60;77.80;;;;;;4406084;32;20212;-62
2021/08/02 11:16:43;;;;;;;3.53;1.20;;;24.60;80.40;;;;;;4406648;32;20599;-62
2021/08/02 11:19:17;;;;;;;3.83;0.98;;;24.60;81.60;;;;;;4407585;32;20177;-62
2021/08/02 11:21:46;;;;;;;3.37;1.20;;;24.70;80.70;;;;;;4405952;32;20155;-63
2021/08/02 11:24:14;;;;;;;5.33;1.00;;;24.30;78.90;;;;;;4405689;32;20156;-62
2021/08/02 11:26:53;;;;;;;4.97;0.87;;;24.60;81.70;;;;;;4356487;32;1676232;-61
2021/08/02 11:29:22;;;;;;;1.30;0.95;;;24.80;77.80;;;;;;4421049;32;20662;-61
2021/08/02 11:32:00;;;;;;;5.03;1.50;;;25.10;80.20;;;;;;4420778;32;20166;-62
2021/08/02 11:34:29;;;;;;;2.67;0.90;;;25.40;76.90;;;;;;4420977;32;20173;-62
2021/08/02 11:37:04;;;;;;;5.00;1.02;;;25.70;79.40;;;;;;4420912;32;20242;-62
2021/08/02 11:39:33;;;;;;;3.67;1.30;;;25.60;77.70;;;;;;4421006;32;20165;-62
2021/08/02 11:42:06;;;;;;;3.17;1.27;;;25.70;76.30;;;;;;4420814;32;20168;-61
2021/08/02 11:44:34;;;;;;;2.45;0.77;;;25.60;78.50;;;;;;4421480;32;20139;-62
2021/08/02 11:47:02;;;;;;;4.45;1.27;;;25.30;77.20;;;;;;4421353;32;20144;-62
2021/08/02 11:49:29;;;;;;;2.53;1.23;;;25.30;75.20;;;;;;4420738;32;20177;-63
2021/08/02 11:51:56;;;;;;;3.72;1.20;;;25.50;79.80;;;;;;4420944;32;20139;-62
2021/08/02 11:54:24;;;;;;;4.22;1.45;;;25.20;77.10;;;;;;4421098;32;20153;-61
2021/08/02 11:56:53;;;;;;;3.20;1.48;;;24.80;76.70;;;;;;4420917;32;20171;-61
2021/08/02 11:59:21;;;;;;;2.87;0.93;;;24.60;80.80;;;;;;4421214;32;20219;-62
2021/08/02 12:01:50;;;;;;;3.53;1.20;;;24.00;79.70;;;;;;4420444;32;20576;-62
2021/08/02 12:04:18;;;;;;;6.68;1.58;;;23.70;81.50;;;;;;4420443;32;20227;-61
2021/08/02 12:06:51;;;;;;;2.43;1.30;;;23.40;83.50;;;;;;4419959;32;20140;-61
2021/08/02 12:09:32;;;;;;;3.03;1.13;;;23.00;84.60;;;;;;4420910;32;20245;-62
2021/08/02 12:12:01;;;;;;;1.90;1.10;;;23.00;87.10;;;;;;4420981;32;20497;-62
2021/08/02 12:14:30;;;;;;;2.80;1.17;;;23.00;84.40;;;;;;4420649;32;20209;-62
2021/08/02 12:17:07;;;;;;;6.53;1.60;;;23.00;86.90;;;;;;4420694;32;20140;-62
2021/08/02 12:19:48;;;;;;;3.33;1.50;;;23.10;87.60;;;;;;4420444;32;20158;-62
2021/08/02 12:22:15;;;;;;;4.90;1.37;;;22.90;84.60;;;;;;4420511;32;20222;-61
2021/08/02 12:24:54;;;;;;;3.27;1.20;;;22.90;85.90;;;;;;4420393;32;20219;-61
2021/08/02 12:27:23;;;;;;;3.23;1.20;;;22.70;85.60;;;;;;4420098;32;20167;-62
2021/08/02 12:29:58;;;;;;;2.97;1.10;;;22.70;85.60;;;;;;4421202;32;20582;-61
2021/08/02 12:32:35;;;;;;;3.57;0.93;;;23.00;88.00;;;;;;4420965;32;20166;-62
2021/08/02 12:35:02;;;;;;;1.90;0.80;;;23.30;86.40;;;;;;4420254;32;20222;-61
2021/08/02 12:37:29;;;;;;;4.10;1.00;;;23.30;84.90;;;;;;4421262;32;20164;-61
2021/08/02 12:39:56;;;;;;;3.27;0.93;;;23.30;85.20;;;;;;4421635;32;20153;-61
2021/08/02 12:42:26;;;;;;;3.13;0.87;;;23.40;84.10;;;;;;4420311;32;20139;-62
2021/08/02 12:44:53;;;;;;;1.73;1.03;;;23.30;86.00;;;;;;4420397;32;20205;-61
2021/08/02 12:47:20;;;;;;;0.93;0.80;;;23.40;87.60;;;;;;4420724;32;20193;-61
2021/08/02 12:49:46;;;;;;;2.07;1.00;;;23.20;86.50;;;;;;4420124;32;20269;-62
2021/08/02 12:52:13;;;;;;;3.93;1.20;;;22.90;86.50;;;;;;4420132;32;20136;-61
2021/08/02 12:54:40;;;;;;;3.50;1.67;;;22.40;87.90;;;;;;4420110;32;20144;-61
2021/08/02 12:57:07;;;;;;;2.97;0.90;;;21.90;89.20;;;;;;4420155;32;20152;-62